sensor_id;sensor_type;location;lat;lon;timestamp;pressure;altitude;pressure_sealevel;temperature;humidity
63115;BME280;49208;50.874;6.466;2023-03-23T07:01:05;99349.94;;;11.37;88.20
63115;BME280;49208;50.874;6.466;2023-03-23T07:03:32;99351.72;;;11.37;88.00
63115;BME280;49208;50.874;6.466;2023-03-23T07:05:57;99348.97;;;11.38;87.61
63115;BME280;49208;50.874;6.466;2023-03-23T07:08:24;99354.31;;;11.38;87.49
63115;BME280;49208;50.874;6.466;2023-03-23T07:10:54;99355.06;;;11.40;87.46
63115;BME280;49208;50.874;6.466;2023-03-23T07:13:20;99356.78;;;11.41;88.36
63115;BME280;49208;50.874;6.466;2023-03-23T07:15:46;99353.88;;;11.46;87.17
63115;BME280;49208;50.874;6.466;2023-03-23T07:18:13;99356.09;;;11.53;84.81
63115;BME280;49208;50.874;6.466;2023-03-23T07:20:38;99353.00;;;11.61;85.03
63115;BME280;49208;50.874;6.466;2023-03-23T07:23:04;99344.66;;;11.67;85.81
63115;BME280;49208;50.874;6.466;2023-03-23T07:25:33;99345.41;;;11.69;85.28
63115;BME280;49208;50.874;6.466;2023-03-23T07:27:59;99343.44;;;11.73;84.63
63115;BME280;49208;50.874;6.466;2023-03-23T07:30:25;99333.53;;;11.75;84.66
63115;BME280;49208;50.874;6.466;2023-03-23T07:32:51;99349.53;;;11.75;83.70
63115;BME280;49208;50.874;6.466;2023-03-23T07:35:17;99338.59;;;11.80;82.50
63115;BME280;49208;50.874;6.466;2023-03-23T07:37:42;99346.53;;;11.81;83.78
63115;BME280;49208;50.874;6.466;2023-03-23T07:40:08;99355.00;;;11.88;82.94
63115;BME280;49208;50.874;6.466;2023-03-23T07:42:34;99348.75;;;11.89;82.53
63115;BME280;49208;50.874;6.466;2023-03-23T07:45:00;99349.34;;;11.94;82.65
63115;BME280;49208;50.874;6.466;2023-03-23T07:47:25;99346.41;;;11.99;82.17
63115;BME280;49208;50.874;6.466;2023-03-23T07:49:51;99341.75;;;12.02;82.75
63115;BME280;49208;50.874;6.466;2023-03-23T07:52:16;99347.78;;;12.06;82.21
63115;BME280;49208;50.874;6.466;2023-03-23T07:54:42;99343.22;;;12.08;82.63
63115;BME280;49208;50.874;6.466;2023-03-23T07:57:08;99346.53;;;12.11;82.59
63115;BME280;49208;50.874;6.466;2023-03-23T07:59:33;99352.56;;;12.15;82.03
63115;BME280;49208;50.874;6.466;2023-03-23T08:01:59;99353.16;;;12.20;82.22
63115;BME280;49208;50.874;6.466;2023-03-23T08:04:24;99342.19;;;12.25;82.53
63115;BME280;49208;50.874;6.466;2023-03-23T08:06:50;99342.00;;;12.28;81.17
63115;BME280;49208;50.874;6.466;2023-03-23T08:09:16;99338.19;;;12.32;80.15
63115;BME280;49208;50.874;6.466;2023-03-23T08:11:41;99347.03;;;12.32;80.65
63115;BME280;49208;50.874;6.466;2023-03-23T08:14:06;99339.72;;;12.36;80.45
63115;BME280;49208;50.874;6.466;2023-03-23T08:16:32;99348.13;;;12.44;80.41
63115;BME280;49208;50.874;6.466;2023-03-23T08:18:58;99352.22;;;12.50;81.28
63115;BME280;49208;50.874;6.466;2023-03-23T08:21:24;99350.91;;;12.57;80.23
63115;BME280;49208;50.874;6.466;2023-03-23T08:23:49;99350.72;;;12.60;81.42
63115;BME280;49208;50.874;6.466;2023-03-23T08:26:15;99345.19;;;12.63;79.09
63115;BME280;49208;50.874;6.466;2023-03-23T08:28:42;99356.44;;;12.68;79.98
63115;BME280;49208;50.874;6.466;2023-03-23T08:31:11;99358.75;;;12.74;79.23
63115;BME280;49208;50.874;6.466;2023-03-23T08:33:37;99364.63;;;12.80;79.24
63115;BME280;49208;50.874;6.466;2023-03-23T08:36:04;99364.25;;;12.86;79.18
63115;BME280;49208;50.874;6.466;2023-03-23T08:38:30;99368.75;;;13.00;79.53
63115;BME280;49208;50.874;6.466;2023-03-23T08:41:03;99375.22;;;13.10;78.42
63115;BME280;49208;50.874;6.466;2023-03-23T08:43:30;99380.94;;;13.18;77.84
63115;BME280;49208;50.874;6.466;2023-03-23T08:45:55;99390.97;;;13.29;77.90
63115;BME280;49208;50.874;6.466;2023-03-23T08:48:21;99384.56;;;13.31;77.14
63115;BME280;49208;50.874;6.466;2023-03-23T08:50:48;99385.25;;;13.35;77.04
63115;BME280;49208;50.874;6.466;2023-03-23T08:53:15;99399.06;;;13.42;75.88
63115;BME280;49208;50.874;6.466;2023-03-23T08:55:40;99396.75;;;13.50;75.14
63115;BME280;49208;50.874;6.466;2023-03-23T08:58:06;99393.78;;;13.54;76.62
63115;BME280;49208;50.874;6.466;2023-03-23T09:00:32;99401.31;;;13.62;75.73
63115;BME280;49208;50.874;6.466;2023-03-23T09:02:57;99397.75;;;13.76;76.66
63115;BME280;49208;50.874;6.466;2023-03-23T09:05:25;99404.31;;;13.85;76.33
63115;BME280;49208;50.874;6.466;2023-03-23T09:07:52;99394.91;;;13.92;73.64
63115;BME280;49208;50.874;6.466;2023-03-23T09:10:18;99395.47;;;13.97;72.04
63115;BME280;49208;50.874;6.466;2023-03-23T09:12:45;99398.91;;;13.99;73.00
63115;BME280;49208;50.874;6.466;2023-03-23T09:15:14;99383.69;;;14.00;72.34
63115;BME280;49208;50.874;6.466;2023-03-23T09:17:43;99390.25;;;14.08;73.76
63115;BME280;49208;50.874;6.466;2023-03-23T09:20:11;99392.25;;;14.05;72.95
63115;BME280;49208;50.874;6.466;2023-03-23T09:22:41;99389.50;;;14.06;72.28
63115;BME280;49208;50.874;6.466;2023-03-23T09:25:08;99403.44;;;14.11;72.10
63115;BME280;49208;50.874;6.466;2023-03-23T09:27:34;99422.91;;;14.13;70.86
63115;BME280;49208;50.874;6.466;2023-03-23T09:30:11;99416.34;;;14.05;72.68
63115;BME280;49208;50.874;6.466;2023-03-23T09:32:38;99427.75;;;13.94;72.56
63115;BME280;49208;50.874;6.466;2023-03-23T09:35:05;99414.69;;;13.89;72.45
63115;BME280;49208;50.874;6.466;2023-03-23T09:37:36;99421.13;;;13.87;73.64
63115;BME280;49208;50.874;6.466;2023-03-23T09:40:04;99417.19;;;13.92;73.75
63115;BME280;49208;50.874;6.466;2023-03-23T09:43:03;99416.13;;;13.95;73.91
63115;BME280;49208;50.874;6.466;2023-03-23T09:45:41;99411.63;;;13.95;74.73
63115;BME280;49208;50.874;6.466;2023-03-23T09:50:51;99406.81;;;14.01;75.95
63115;BME280;49208;50.874;6.466;2023-03-23T09:53:24;99402.09;;;14.04;74.89
63115;BME280;49208;50.874;6.466;2023-03-23T09:55:52;99407.06;;;14.10;74.93
63115;BME280;49208;50.874;6.466;2023-03-23T09:58:27;99408.88;;;14.10;75.89
63115;BME280;49208;50.874;6.466;2023-03-23T10:03:30;99412.16;;;14.01;77.06
63115;BME280;49208;50.874;6.466;2023-03-23T10:05:57;99412.28;;;13.99;77.85
63115;BME280;49208;50.874;6.466;2023-03-23T10:08:25;99414.94;;;13.99;78.08
63115;BME280;49208;50.874;6.466;2023-03-23T10:16:05;99420.25;;;14.13;78.19
63115;BME280;49208;50.874;6.466;2023-03-23T10:18:37;99423.28;;;14.22;78.39
63115;BME280;49208;50.874;6.466;2023-03-23T10:21:03;99419.34;;;14.40;77.73
63115;BME280;49208;50.874;6.466;2023-03-23T10:26:48;99419.03;;;14.45;76.79
63115;BME280;49208;50.874;6.466;2023-03-23T10:29:31;99422.97;;;14.39;79.30
63115;BME280;49208;50.874;6.466;2023-03-23T10:32:02;99421.66;;;14.59;78.91
63115;BME280;49208;50.874;6.466;2023-03-23T10:34:35;99416.28;;;14.98;77.01
63115;BME280;49208;50.874;6.466;2023-03-23T10:37:15;99417.63;;;15.42;75.17
63115;BME280;49208;50.874;6.466;2023-03-23T10:39:49;99418.69;;;15.89;74.56
63115;BME280;49208;50.874;6.466;2023-03-23T10:42:27;99420.75;;;16.09;73.29
63115;BME280;49208;50.874;6.466;2023-03-23T10:44:53;99421.84;;;16.07;70.84
63115;BME280;49208;50.874;6.466;2023-03-23T10:47:19;99418.34;;;15.93;71.79
63115;BME280;49208;50.874;6.466;2023-03-23T10:49:55;99410.19;;;15.95;70.46
63115;BME280;49208;50.874;6.466;2023-03-23T10:52:37;99416.47;;;16.07;69.55
63115;BME280;49208;50.874;6.466;2023-03-23T10:57:33;99417.41;;;16.19;68.16
63115;BME280;49208;50.874;6.466;2023-03-23T11:02:41;99410.88;;;16.10;68.59
63115;BME280;49208;50.874;6.466;2023-03-23T11:05:18;99437.88;;;16.20;68.72
63115;BME280;49208;50.874;6.466;2023-03-23T11:07:49;99425.31;;;16.20;67.94
63115;BME280;49208;50.874;6.466;2023-03-23T11:10:35;99435.22;;;16.31;68.70
63115;BME280;49208;50.874;6.466;2023-03-23T11:13:01;99419.53;;;16.38;67.73
63115;BME280;49208;50.874;6.466;2023-03-23T11:15:35;99413.81;;;16.53;68.46
63115;BME280;49208;50.874;6.466;2023-03-23T11:18:10;99423.53;;;16.32;67.72
63115;BME280;49208;50.874;6.466;2023-03-23T11:20:41;99428.69;;;15.87;69.25
63115;BME280;49208;50.874;6.466;2023-03-23T11:23:20;99435.81;;;15.62;75.30
63115;BME280;49208;50.874;6.466;2023-03-23T11:31:09;99444.38;;;15.18;80.33
63115;BME280;49208;50.874;6.466;2023-03-23T11:33:57;99433.38;;;15.59;79.87
63115;BME280;49208;50.874;6.466;2023-03-23T11:36:35;99442.34;;;16.08;80.19
63115;BME280;49208;50.874;6.466;2023-03-23T11:39:03;99422.25;;;16.49;74.91
63115;BME280;49208;50.874;6.466;2023-03-23T11:41:44;99420.91;;;16.90;73.46
63115;BME280;49208;50.874;6.466;2023-03-23T11:44:10;99421.41;;;17.17;70.81
63115;BME280;49208;50.874;6.466;2023-03-23T11:47:07;99406.50;;;17.25;69.67
63115;BME280;49208;50.874;6.466;2023-03-23T11:50:03;99409.56;;;16.98;68.08
63115;BME280;49208;50.874;6.466;2023-03-23T11:52:41;99423.00;;;17.09;69.13
63115;BME280;49208;50.874;6.466;2023-03-23T11:57:49;99411.03;;;17.35;68.16
63115;BME280;49208;50.874;6.466;2023-03-23T12:00:18;99406.97;;;17.52;66.45
63115;BME280;49208;50.874;6.466;2023-03-23T12:02:59;99424.03;;;17.74;67.43
63115;BME280;49208;50.874;6.466;2023-03-23T12:13:40;99427.88;;;17.83;64.79
63115;BME280;49208;50.874;6.466;2023-03-23T12:24:12;99419.22;;;17.45;64.28
63115;BME280;49208;50.874;6.466;2023-03-23T12:32:46;99394.63;;;17.38;64.52
63115;BME280;49208;50.874;6.466;2023-03-23T12:43:32;99406.28;;;16.59;65.06
63115;BME280;49208;50.874;6.466;2023-03-23T12:48:54;99425.38;;;16.31;68.78
63115;BME280;49208;50.874;6.466;2023-03-23T13:02:19;99460.16;;;15.85;71.38
63115;BME280;49208;50.874;6.466;2023-03-23T13:04:51;99446.34;;;15.65;71.96
63115;BME280;49208;50.874;6.466;2023-03-23T13:07:26;99463.00;;;15.45;73.52
63115;BME280;49208;50.874;6.466;2023-03-23T13:10:19;99440.41;;;15.36;73.22
63115;BME280;49208;50.874;6.466;2023-03-23T13:12:47;99453.94;;;15.22;74.28
63115;BME280;49208;50.874;6.466;2023-03-23T13:15:43;99473.31;;;14.87;77.82
63115;BME280;49208;50.874;6.466;2023-03-23T13:18:38;99450.94;;;14.48;80.11
63115;BME280;49208;50.874;6.466;2023-03-23T13:23:39;99447.44;;;14.20;83.77
63115;BME280;49208;50.874;6.466;2023-03-23T13:26:09;99442.75;;;14.24;83.50
63115;BME280;49208;50.874;6.466;2023-03-23T13:28:59;99444.69;;;14.62;82.53
63115;BME280;49208;50.874;6.466;2023-03-23T13:31:35;99443.19;;;14.96;81.29
63115;BME280;49208;50.874;6.466;2023-03-23T13:34:10;99432.34;;;15.36;81.75
63115;BME280;49208;50.874;6.466;2023-03-23T13:36:40;99424.13;;;15.76;77.58
63115;BME280;49208;50.874;6.466;2023-03-23T13:39:18;99424.88;;;16.02;74.99
63115;BME280;49208;50.874;6.466;2023-03-23T13:41:58;99420.56;;;16.24;75.18
63115;BME280;49208;50.874;6.466;2023-03-23T13:44:26;99418.66;;;16.37;72.79
63115;BME280;49208;50.874;6.466;2023-03-23T13:49:53;99440.59;;;16.66;72.10
63115;BME280;49208;50.874;6.466;2023-03-23T13:52:36;99448.06;;;16.63;70.91
63115;BME280;49208;50.874;6.466;2023-03-23T14:00:49;99431.31;;;16.70;70.18
63115;BME280;49208;50.874;6.466;2023-03-23T14:08:25;99418.06;;;16.45;66.08
63115;BME280;49208;50.874;6.466;2023-03-23T14:11:10;99422.28;;;16.25;67.46
63115;BME280;49208;50.874;6.466;2023-03-23T14:16:28;99423.66;;;15.82;65.98
63115;BME280;49208;50.874;6.466;2023-03-23T14:19:01;99416.09;;;15.63;66.21
63115;BME280;49208;50.874;6.466;2023-03-23T14:21:40;99429.66;;;15.36;67.55
63115;BME280;49208;50.874;6.466;2023-03-23T14:24:10;99425.09;;;15.25;68.66
63115;BME280;49208;50.874;6.466;2023-03-23T14:26:37;99433.66;;;15.18;69.25
63115;BME280;49208;50.874;6.466;2023-03-23T14:29:04;99433.13;;;15.25;69.75
63115;BME280;49208;50.874;6.466;2023-03-23T14:31:30;99439.75;;;15.32;70.03
63115;BME280;49208;50.874;6.466;2023-03-23T14:34:05;99432.88;;;15.41;69.74
63115;BME280;49208;50.874;6.466;2023-03-23T14:36:36;99446.81;;;15.46;69.87
63115;BME280;49208;50.874;6.466;2023-03-23T14:41:36;99433.38;;;15.59;69.66
63115;BME280;49208;50.874;6.466;2023-03-23T14:44:03;99436.34;;;15.67;70.70
63115;BME280;49208;50.874;6.466;2023-03-23T14:46:31;99426.72;;;15.65;68.84
63115;BME280;49208;50.874;6.466;2023-03-23T14:49:00;99421.09;;;15.68;68.80
63115;BME280;49208;50.874;6.466;2023-03-23T14:51:26;99422.84;;;15.69;69.69
63115;BME280;49208;50.874;6.466;2023-03-23T14:53:53;99411.44;;;15.78;69.21
63115;BME280;49208;50.874;6.466;2023-03-23T14:56:20;99405.53;;;15.86;68.68
63115;BME280;49208;50.874;6.466;2023-03-23T14:58:50;99399.34;;;15.96;69.13
63115;BME280;49208;50.874;6.466;2023-03-23T15:01:27;99391.34;;;16.08;68.18
63115;BME280;49208;50.874;6.466;2023-03-23T15:04:20;99377.97;;;16.19;69.63
63115;BME280;49208;50.874;6.466;2023-03-23T15:07:05;99369.56;;;16.24;68.31
63115;BME280;49208;50.874;6.466;2023-03-23T15:09:31;99355.38;;;16.22;65.69
63115;BME280;49208;50.874;6.466;2023-03-23T15:12:03;99357.81;;;16.13;66.29
63115;BME280;49208;50.874;6.466;2023-03-23T15:14:43;99366.16;;;15.98;65.26
63115;BME280;49208;50.874;6.466;2023-03-23T15:17:18;99364.38;;;15.85;64.03
63115;BME280;49208;50.874;6.466;2023-03-23T15:19:44;99361.41;;;15.77;64.57
63115;BME280;49208;50.874;6.466;2023-03-23T15:22:23;99351.56;;;15.78;64.42
63115;BME280;49208;50.874;6.466;2023-03-23T15:24:51;99352.06;;;15.83;66.27
63115;BME280;49208;50.874;6.466;2023-03-23T15:27:28;99361.69;;;15.85;64.85
63115;BME280;49208;50.874;6.466;2023-03-23T15:29:57;99354.91;;;15.92;65.25
63115;BME280;49208;50.874;6.466;2023-03-23T15:32:27;99361.38;;;15.90;64.59
63115;BME280;49208;50.874;6.466;2023-03-23T15:34:53;99357.69;;;15.80;62.68
63115;BME280;49208;50.874;6.466;2023-03-23T15:37:27;99359.50;;;15.66;64.23
63115;BME280;49208;50.874;6.466;2023-03-23T15:39:53;99351.16;;;15.58;62.23
63115;BME280;49208;50.874;6.466;2023-03-23T15:42:34;99360.47;;;15.41;63.97
63115;BME280;49208;50.874;6.466;2023-03-23T15:47:47;99358.88;;;15.39;66.39
63115;BME280;49208;50.874;6.466;2023-03-23T15:52:44;99339.84;;;15.54;66.88
63115;BME280;49208;50.874;6.466;2023-03-23T15:57:46;99334.75;;;15.63;64.32
63115;BME280;49208;50.874;6.466;2023-03-23T16:00:11;99329.09;;;15.54;65.05
63115;BME280;49208;50.874;6.466;2023-03-23T16:02:37;99335.47;;;15.41;65.03
63115;BME280;49208;50.874;6.466;2023-03-23T16:05:03;99339.91;;;15.29;66.54
63115;BME280;49208;50.874;6.466;2023-03-23T16:07:29;99333.50;;;15.19;65.45
63115;BME280;49208;50.874;6.466;2023-03-23T16:09:54;99315.50;;;15.08;65.10
63115;BME280;49208;50.874;6.466;2023-03-23T16:12:20;99329.16;;;15.05;64.62
63115;BME280;49208;50.874;6.466;2023-03-23T16:14:45;99327.75;;;14.99;66.13
63115;BME280;49208;50.874;6.466;2023-03-23T16:17:18;99331.84;;;14.92;66.27
63115;BME280;49208;50.874;6.466;2023-03-23T16:19:45;99329.63;;;14.86;65.67
63115;BME280;49208;50.874;6.466;2023-03-23T16:22:10;99335.28;;;14.81;65.87
63115;BME280;49208;50.874;6.466;2023-03-23T16:24:36;99338.41;;;14.75;65.63
63115;BME280;49208;50.874;6.466;2023-03-23T16:27:02;99324.47;;;14.70;65.09
63115;BME280;49208;50.874;6.466;2023-03-23T16:29:28;99336.38;;;14.66;65.17
63115;BME280;49208;50.874;6.466;2023-03-23T16:31:53;99333.16;;;14.61;65.66
63115;BME280;49208;50.874;6.466;2023-03-23T16:34:19;99336.16;;;14.56;65.69
63115;BME280;49208;50.874;6.466;2023-03-23T16:36:44;99334.63;;;14.52;65.94
63115;BME280;49208;50.874;6.466;2023-03-23T16:39:13;99341.06;;;14.49;64.42
63115;BME280;49208;50.874;6.466;2023-03-23T16:41:43;99345.44;;;14.38;65.95
63115;BME280;49208;50.874;6.466;2023-03-23T16:44:08;99340.41;;;14.33;66.30
63115;BME280;49208;50.874;6.466;2023-03-23T16:46:34;99353.25;;;14.28;67.33
63115;BME280;49208;50.874;6.466;2023-03-23T16:48:59;99351.09;;;14.20;67.76
63115;BME280;49208;50.874;6.466;2023-03-23T16:51:25;99353.44;;;14.12;68.63
63115;BME280;49208;50.874;6.466;2023-03-23T16:53:50;99360.06;;;14.06;68.92
63115;BME280;49208;50.874;6.466;2023-03-23T16:56:15;99365.81;;;14.00;68.29
63115;BME280;49208;50.874;6.466;2023-03-23T16:58:41;99365.28;;;13.95;69.09
63115;BME280;49208;50.874;6.466;2023-03-23T17:01:07;99372.75;;;13.90;69.32
63115;BME280;49208;50.874;6.466;2023-03-23T17:03:32;99366.09;;;13.83;69.53
63115;BME280;49208;50.874;6.466;2023-03-23T17:05:59;99374.53;;;13.77;70.58
63115;BME280;49208;50.874;6.466;2023-03-23T17:08:24;99372.34;;;13.69;70.57
63115;BME280;49208;50.874;6.466;2023-03-23T17:10:50;99378.31;;;13.60;71.09
63115;BME280;49208;50.874;6.466;2023-03-23T17:13:15;99373.38;;;13.53;70.83
63115;BME280;49208;50.874;6.466;2023-03-23T17:15:42;99376.34;;;13.49;71.30
63115;BME280;49208;50.874;6.466;2023-03-23T17:18:08;99367.00;;;13.42;71.10
63115;BME280;49208;50.874;6.466;2023-03-23T17:20:34;99360.69;;;13.43;70.39
63115;BME280;49208;50.874;6.466;2023-03-23T17:22:59;99367.19;;;13.39;71.84
63115;BME280;49208;50.874;6.466;2023-03-23T17:25:26;99363.66;;;13.38;71.67
63115;BME280;49208;50.874;6.466;2023-03-23T17:27:54;99365.06;;;13.44;70.94
63115;BME280;49208;50.874;6.466;2023-03-23T17:30:20;99367.06;;;13.40;71.95
63115;BME280;49208;50.874;6.466;2023-03-23T17:32:45;99361.84;;;13.39;71.84
63115;BME280;49208;50.874;6.466;2023-03-23T17:35:12;99370.16;;;13.34;72.27
63115;BME280;49208;50.874;6.466;2023-03-23T17:37:37;99360.59;;;13.30;72.49
63115;BME280;49208;50.874;6.466;2023-03-23T17:40:04;99367.19;;;13.24;72.67
63115;BME280;49208;50.874;6.466;2023-03-23T17:42:32;99356.78;;;13.20;72.33
63115;BME280;49208;50.874;6.466;2023-03-23T17:44:58;99366.63;;;13.19;72.14
63115;BME280;49208;50.874;6.466;2023-03-23T17:47:23;99363.28;;;13.15;72.68
63115;BME280;49208;50.874;6.466;2023-03-23T17:49:49;99367.00;;;13.13;72.70
63115;BME280;49208;50.874;6.466;2023-03-23T17:52:15;99363.88;;;13.06;73.46
63115;BME280;49208;50.874;6.466;2023-03-23T17:54:40;99365.31;;;12.98;73.52
63115;BME280;49208;50.874;6.466;2023-03-23T17:57:06;99362.72;;;12.96;73.72
63115;BME280;49208;50.874;6.466;2023-03-23T17:59:31;99368.53;;;12.88;74.48
63115;BME280;49208;50.874;6.466;2023-03-23T18:01:57;99363.50;;;12.84;74.67
63115;BME280;49208;50.874;6.466;2023-03-23T18:04:22;99361.97;;;12.80;74.83
63115;BME280;49208;50.874;6.466;2023-03-23T18:06:48;99366.75;;;12.74;74.86
63115;BME280;49208;50.874;6.466;2023-03-23T18:09:13;99362.44;;;12.72;75.63
63115;BME280;49208;50.874;6.466;2023-03-23T18:11:39;99356.44;;;12.68;75.70
63115;BME280;49208;50.874;6.466;2023-03-23T18:14:05;99355.69;;;12.66;75.95
63115;BME280;49208;50.874;6.466;2023-03-23T18:16:31;99348.81;;;12.62;76.33
63115;BME280;49208;50.874;6.466;2023-03-23T18:18:56;99353.69;;;12.56;76.72
63115;BME280;49208;50.874;6.466;2023-03-23T18:21:21;99346.13;;;12.48;77.05
63115;BME280;49208;50.874;6.466;2023-03-23T18:23:48;99347.06;;;12.47;77.14
63115;BME280;49208;50.874;6.466;2023-03-23T18:26:14;99349.75;;;12.47;77.40
63115;BME280;49208;50.874;6.466;2023-03-23T18:28:41;99338.03;;;12.49;77.46
63115;BME280;49208;50.874;6.466;2023-03-23T18:31:09;99338.50;;;12.56;77.38
63115;BME280;49208;50.874;6.466;2023-03-23T18:33:36;99336.69;;;12.57;77.72
63115;BME280;49208;50.874;6.466;2023-03-23T18:36:02;99331.56;;;12.68;77.15
63115;BME280;49208;50.874;6.466;2023-03-23T18:38:29;99329.53;;;12.71;77.29
63115;BME280;49208;50.874;6.466;2023-03-23T18:40:54;99327.47;;;12.77;77.13
63115;BME280;49208;50.874;6.466;2023-03-23T18:43:20;99315.72;;;12.79;76.99
63115;BME280;49208;50.874;6.466;2023-03-23T18:45:50;99316.97;;;12.73;77.59
63115;BME280;49208;50.874;6.466;2023-03-23T18:48:16;99315.44;;;12.69;78.10
63115;BME280;49208;50.874;6.466;2023-03-23T18:50:48;99304.88;;;12.68;77.97
63115;BME280;49208;50.874;6.466;2023-03-23T18:53:14;99299.63;;;12.66;77.51
63115;BME280;49208;50.874;6.466;2023-03-23T18:55:43;99299.69;;;12.65;77.59
63115;BME280;49208;50.874;6.466;2023-03-23T18:58:10;99298.56;;;12.69;77.35
63115;BME280;49208;50.874;6.466;2023-03-23T19:00:37;99292.53;;;12.65;77.87
63115;BME280;49208;50.874;6.466;2023-03-23T19:03:03;99289.31;;;12.60;78.18
63115;BME280;49208;50.874;6.466;2023-03-23T19:05:29;99291.31;;;12.57;78.20
63115;BME280;49208;50.874;6.466;2023-03-23T19:07:55;99296.19;;;12.50;78.94
63115;BME280;49208;50.874;6.466;2023-03-23T19:10:21;99300.75;;;12.48;78.80
63115;BME280;49208;50.874;6.466;2023-03-23T19:12:48;99307.16;;;12.45;79.12
63115;BME280;49208;50.874;6.466;2023-03-23T19:15:14;99306.84;;;12.50;78.71
63115;BME280;49208;50.874;6.466;2023-03-23T19:17:39;99314.50;;;12.56;78.50
63115;BME280;49208;50.874;6.466;2023-03-23T19:20:06;99310.97;;;12.56;79.16
63115;BME280;49208;50.874;6.466;2023-03-23T19:22:36;99313.34;;;12.60;78.65
63115;BME280;49208;50.874;6.466;2023-03-23T19:25:03;99314.88;;;12.64;78.04
63115;BME280;49208;50.874;6.466;2023-03-23T19:27:29;99301.63;;;12.63;78.65
63115;BME280;49208;50.874;6.466;2023-03-23T19:29:55;99304.38;;;12.61;78.57
63115;BME280;49208;50.874;6.466;2023-03-23T19:32:20;99303.34;;;12.64;77.86
63115;BME280;49208;50.874;6.466;2023-03-23T19:34:46;99301.44;;;12.66;78.05
63115;BME280;49208;50.874;6.466;2023-03-23T19:37:11;99308.69;;;12.64;78.76
63115;BME280;49208;50.874;6.466;2023-03-23T19:39:37;99310.59;;;12.62;78.55
63115;BME280;49208;50.874;6.466;2023-03-23T19:42:04;99307.91;;;12.62;78.47
63115;BME280;49208;50.874;6.466;2023-03-23T19:44:30;99298.84;;;12.64;78.34
63115;BME280;49208;50.874;6.466;2023-03-23T19:46:56;99295.59;;;12.59;78.33
63115;BME280;49208;50.874;6.466;2023-03-23T19:49:21;99290.09;;;12.62;77.97
63115;BME280;49208;50.874;6.466;2023-03-23T19:51:46;99282.38;;;12.58;77.95
63115;BME280;49208;50.874;6.466;2023-03-23T19:54:12;99278.44;;;12.49;78.40
63115;BME280;49208;50.874;6.466;2023-03-23T19:56:37;99269.78;;;12.45;78.97
63115;BME280;49208;50.874;6.466;2023-03-23T19:59:03;99272.47;;;12.45;78.41
63115;BME280;49208;50.874;6.466;2023-03-23T20:01:28;99271.50;;;12.46;78.43
63115;BME280;49208;50.874;6.466;2023-03-23T20:03:54;99269.78;;;12.45;79.05
63115;BME280;49208;50.874;6.466;2023-03-23T20:06:21;99275.50;;;12.39;79.55
63115;BME280;49208;50.874;6.466;2023-03-23T20:08:47;99259.97;;;12.46;78.97
63115;BME280;49208;50.874;6.466;2023-03-23T20:11:17;99263.78;;;12.56;78.41
63115;BME280;49208;50.874;6.466;2023-03-23T20:13:44;99245.75;;;12.60;77.42
63115;BME280;49208;50.874;6.466;2023-03-23T20:16:10;99249.19;;;12.62;77.94
63115;BME280;49208;50.874;6.466;2023-03-23T20:18:36;99249.38;;;12.59;78.07
63115;BME280;49208;50.874;6.466;2023-03-23T20:21:09;99246.91;;;12.56;78.21
63115;BME280;49208;50.874;6.466;2023-03-23T20:23:35;99242.22;;;12.59;77.77
63115;BME280;49208;50.874;6.466;2023-03-23T20:26:05;99247.47;;;12.61;78.17
63115;BME280;49208;50.874;6.466;2023-03-23T20:28:31;99243.19;;;12.58;78.39
63115;BME280;49208;50.874;6.466;2023-03-23T20:31:09;99241.94;;;12.64;77.85
63115;BME280;49208;50.874;6.466;2023-03-23T20:33:36;99228.88;;;12.59;78.29
63115;BME280;49208;50.874;6.466;2023-03-23T20:36:03;99231.66;;;12.58;78.47
63115;BME280;49208;50.874;6.466;2023-03-23T20:38:29;99230.13;;;12.53;78.80
63115;BME280;49208;50.874;6.466;2023-03-23T20:40:59;99220.47;;;12.51;78.72
63115;BME280;49208;50.874;6.466;2023-03-23T20:43:26;99219.16;;;12.58;77.99
63115;BME280;49208;50.874;6.466;2023-03-23T20:45:55;99216.41;;;12.60;78.13
63115;BME280;49208;50.874;6.466;2023-03-23T20:48:21;99220.75;;;12.61;78.26
63115;BME280;49208;50.874;6.466;2023-03-23T20:50:46;99226.31;;;12.58;78.36
63115;BME280;49208;50.874;6.466;2023-03-23T20:53:12;99217.44;;;12.57;78.18
63115;BME280;49208;50.874;6.466;2023-03-23T20:55:38;99225.44;;;12.57;78.18
63115;BME280;49208;50.874;6.466;2023-03-23T20:58:04;99212.00;;;12.59;78.26
63115;BME280;49208;50.874;6.466;2023-03-23T21:00:30;99209.22;;;12.60;78.08
63115;BME280;49208;50.874;6.466;2023-03-23T21:02:56;99216.19;;;12.63;78.21
63115;BME280;49208;50.874;6.466;2023-03-23T21:05:21;99207.41;;;12.61;78.26
63115;BME280;49208;50.874;6.466;2023-03-23T21:07:46;99211.81;;;12.62;78.36
63115;BME280;49208;50.874;6.466;2023-03-23T21:10:13;99212.66;;;12.62;78.40
63115;BME280;49208;50.874;6.466;2023-03-23T21:12:39;99209.22;;;12.60;78.45
63115;BME280;49208;50.874;6.466;2023-03-23T21:15:05;99210.94;;;12.61;78.33
63115;BME280;49208;50.874;6.466;2023-03-23T21:17:30;99205.59;;;12.61;78.79
63115;BME280;49208;50.874;6.466;2023-03-23T21:19:55;99208.84;;;12.66;78.67
63115;BME280;49208;50.874;6.466;2023-03-23T21:22:21;99211.50;;;12.66;78.69
63115;BME280;49208;50.874;6.466;2023-03-23T21:24:46;99215.03;;;12.67;78.79
63115;BME280;49208;50.874;6.466;2023-03-23T21:27:15;99208.84;;;12.66;79.14
63115;BME280;49208;50.874;6.466;2023-03-23T21:29:41;99214.72;;;12.71;78.32
63115;BME280;49208;50.874;6.466;2023-03-23T21:32:06;99210.38;;;12.70;79.41
63115;BME280;49208;50.874;6.466;2023-03-23T21:34:32;99205.78;;;12.72;79.19
63115;BME280;49208;50.874;6.466;2023-03-23T21:36:57;99204.91;;;12.72;79.63
63115;BME280;49208;50.874;6.466;2023-03-23T21:39:23;99207.56;;;12.72;79.46
63115;BME280;49208;50.874;6.466;2023-03-23T21:41:48;99202.34;;;12.70;79.33
63115;BME280;49208;50.874;6.466;2023-03-23T21:44:14;99208.31;;;12.74;79.12
63115;BME280;49208;50.874;6.466;2023-03-23T21:46:40;99195.66;;;12.78;79.70
63115;BME280;49208;50.874;6.466;2023-03-23T21:49:06;99190.69;;;12.71;80.11